Time;durP1;ratioP1;P1;durP2;ratioP2;P2;SDS_P1;SDS_P2;PMS_P1;PMS_P2;Temp;Humidity;BMP_temperature;BMP_pressure;BME280_temperature;BME280_humidity;BME280_pressure;Samples;Min_cycle;Max_cycle;Signal;HPM_P1;HPM_P2
2023/07/09 00:00:49;;;;;;;11.00;4.90;;;27.90;71.50;;;;;;5072182;28;20020;-76
2023/07/09 00:03:15;;;;;;;12.65;4.93;;;27.80;72.10;;;;;;5071988;28;20040;-76
2023/07/09 00:05:45;;;;;;;14.13;5.10;;;27.80;71.50;;;;;;5071886;28;20024;-76
2023/07/09 00:08:33;;;;;;;12.23;4.30;;;27.90;71.50;;;;;;5072305;28;20029;-77
2023/07/09 00:10:59;;;;;;;13.60;4.25;;;27.80;71.10;;;;;;5076007;28;20503;-77
2023/07/09 00:13:27;;;;;;;11.48;4.32;;;27.90;71.20;;;;;;5075740;28;20476;-77
2023/07/09 00:15:59;;;;;;;12.05;4.90;;;27.80;71.40;;;;;;5074338;28;20035;-76
2023/07/09 00:18:25;;;;;;;10.18;4.70;;;27.80;71.70;;;;;;5076115;28;20126;-77
2023/07/09 00:20:51;;;;;;;16.63;4.95;;;27.80;71.50;;;;;;5075652;28;20087;-76
2023/07/09 00:23:19;;;;;;;12.18;5.05;;;27.80;71.70;;;;;;5075309;28;20110;-77
2023/07/09 00:25:45;;;;;;;11.48;5.18;;;27.80;72.00;;;;;;5075647;28;20051;-76
2023/07/09 00:28:18;;;;;;;13.07;4.72;;;27.80;72.20;;;;;;5075360;28;20477;-77
2023/07/09 00:30:48;;;;;;;7.55;4.10;;;27.70;72.00;;;;;;5075882;28;20024;-77
2023/07/09 00:33:18;;;;;;;9.35;4.30;;;27.70;71.30;;;;;;5075346;28;20029;-77
2023/07/09 00:35:46;;;;;;;9.95;3.65;;;27.70;71.00;;;;;;5075675;28;20028;-76
2023/07/09 00:38:21;;;;;;;9.65;4.15;;;27.70;71.10;;;;;;5075286;28;20037;-77
2023/07/09 00:40:56;;;;;;;7.28;3.75;;;27.70;71.50;;;;;;5075012;28;20044;-76
2023/07/09 00:43:22;;;;;;;11.63;3.83;;;27.70;71.50;;;;;;5075495;28;20044;-76
2023/07/09 00:46:17;;;;;;;6.50;2.95;;;27.70;71.30;;;;;;5075541;28;20025;-76
2023/07/09 00:48:45;;;;;;;10.23;3.20;;;27.70;71.10;;;;;;5075551;28;20488;-76
2023/07/09 00:51:15;;;;;;;5.28;2.83;;;27.70;71.20;;;;;;5075297;28;20460;-76
2023/07/09 00:53:45;;;;;;;9.85;3.25;;;27.60;71.20;;;;;;5090568;28;20103;-76
2023/07/09 00:56:16;;;;;;;12.00;3.55;;;27.60;71.00;;;;;;5075500;28;20107;-76
2023/07/09 00:58:46;;;;;;;9.98;3.90;;;27.60;71.80;;;;;;5075161;28;20032;-77
2023/07/09 01:01:17;;;;;;;8.55;3.58;;;27.70;71.90;;;;;;5073532;28;20098;-76
2023/07/09 01:03:49;;;;;;;6.75;2.85;;;27.70;72.00;;;;;;5074994;28;20029;-76
2023/07/09 01:06:23;;;;;;;8.90;3.53;;;27.60;71.30;;;;;;5073493;28;20459;-76
2023/07/09 01:08:53;;;;;;;8.82;3.67;;;27.60;71.80;;;;;;5073281;28;20074;-76
2023/07/09 01:11:22;;;;;;;8.80;4.03;;;27.60;72.00;;;;;;5074835;28;20028;-76
2023/07/09 01:13:52;;;;;;;12.85;3.80;;;27.50;72.10;;;;;;5075085;28;20528;-76
2023/07/09 01:16:23;;;;;;;9.77;3.78;;;27.50;71.70;;;;;;5074907;28;20017;-76
2023/07/09 01:18:52;;;;;;;11.05;3.55;;;27.50;71.80;;;;;;5074829;28;20021;-76
2023/07/09 01:21:19;;;;;;;12.00;3.28;;;27.50;71.90;;;;;;5074688;28;20024;-75
2023/07/09 01:23:48;;;;;;;11.60;3.63;;;27.50;71.50;;;;;;5074320;28;20029;-76
2023/07/09 01:26:19;;;;;;;10.32;2.80;;;27.40;71.70;;;;;;5074327;28;20020;-76
2023/07/09 01:28:46;;;;;;;8.27;3.03;;;27.40;71.20;;;;;;5074640;28;20468;-77
2023/07/09 01:31:14;;;;;;;5.82;2.60;;;27.40;70.40;;;;;;5072815;28;20549;-76
2023/07/09 01:33:44;;;;;;;7.30;2.88;;;27.40;69.70;;;;;;5074128;28;20340;-75
2023/07/09 01:36:14;;;;;;;6.30;3.10;;;27.40;69.30;;;;;;5074161;28;20127;-76
2023/07/09 01:38:41;;;;;;;6.43;3.05;;;27.50;69.90;;;;;;5073716;28;20431;-75
2023/07/09 01:41:08;;;;;;;6.20;2.70;;;27.40;70.00;;;;;;5074362;28;20039;-76
2023/07/09 01:43:34;;;;;;;7.85;3.13;;;27.30;70.00;;;;;;5074403;28;20040;-75
2023/07/09 01:46:01;;;;;;;6.50;2.67;;;27.30;70.10;;;;;;5074458;28;20055;-76
2023/07/09 01:48:27;;;;;;;8.02;2.80;;;27.30;70.20;;;;;;5073990;28;20036;-75
2023/07/09 01:50:54;;;;;;;4.82;2.47;;;27.30;70.20;;;;;;5074342;28;20107;-75
2023/07/09 01:53:25;;;;;;;5.13;2.58;;;27.30;69.90;;;;;;5073563;28;20029;-75
2023/07/09 01:55:54;;;;;;;6.90;2.75;;;27.30;69.50;;;;;;5074030;28;20066;-75
2023/07/09 01:58:24;;;;;;;9.43;3.25;;;27.10;69.50;;;;;;5073666;28;20051;-75
2023/07/09 02:00:51;;;;;;;8.27;2.88;;;27.00;69.40;;;;;;5073558;28;20464;-76
2023/07/09 02:03:17;;;;;;;7.43;2.85;;;26.90;69.50;;;;;;5074070;28;20117;-75
2023/07/09 02:05:43;;;;;;;6.32;3.20;;;26.80;69.50;;;;;;5073565;28;20063;-76
2023/07/09 02:08:09;;;;;;;7.57;2.80;;;26.80;69.40;;;;;;5073482;28;20028;-76
2023/07/09 02:10:35;;;;;;;8.07;2.85;;;26.80;69.00;;;;;;5072151;28;20024;-75
2023/07/09 02:13:01;;;;;;;7.05;3.05;;;26.70;68.90;;;;;;5073852;28;20388;-76
2023/07/09 02:15:30;;;;;;;8.90;3.03;;;26.70;68.60;;;;;;5073337;28;20031;-76
2023/07/09 02:17:58;;;;;;;5.63;2.95;;;26.80;68.20;;;;;;5073333;28;20117;-76
2023/07/09 02:20:26;;;;;;;5.72;2.88;;;26.80;68.60;;;;;;5073599;28;20043;-77
2023/07/09 02:22:52;;;;;;;8.88;2.95;;;26.80;67.30;;;;;;5073311;28;20036;-77
2023/07/09 02:25:18;;;;;;;6.72;3.20;;;26.90;67.10;;;;;;5073009;28;20036;-77
2023/07/09 02:27:44;;;;;;;6.30;3.00;;;26.90;67.00;;;;;;5073492;28;20025;-76
2023/07/09 02:30:11;;;;;;;7.55;2.80;;;26.80;67.10;;;;;;5073346;28;20020;-75
2023/07/09 02:32:37;;;;;;;5.18;2.90;;;26.70;66.90;;;;;;5073035;28;20032;-78
2023/07/09 02:35:04;;;;;;;7.80;3.22;;;26.70;67.10;;;;;;5071706;28;20054;-76
2023/07/09 02:37:30;;;;;;;9.10;3.10;;;26.70;67.10;;;;;;5073209;28;20376;-77
2023/07/09 02:39:56;;;;;;;7.53;3.17;;;26.70;67.40;;;;;;5072803;28;20503;-77
2023/07/09 02:42:23;;;;;;;6.93;3.03;;;26.70;67.30;;;;;;5073071;28;20365;-77
2023/07/09 02:44:50;;;;;;;5.70;3.00;;;26.70;67.10;;;;;;5072934;28;20032;-76
2023/07/09 02:47:17;;;;;;;5.97;2.85;;;26.70;66.80;;;;;;5073348;28;20028;-77
2023/07/09 02:49:43;;;;;;;8.02;2.80;;;26.70;66.80;;;;;;5073113;28;20033;-77
2023/07/09 02:52:09;;;;;;;7.25;2.72;;;26.70;66.60;;;;;;5073033;28;20028;-76
2023/07/09 02:54:35;;;;;;;;;;;26.80;65.90;;;;;;5072967;28;20372;-76
2023/07/09 02:57:01;;;;;;;9.02;3.22;;;27.00;65.70;;;;;;5072706;28;19904;-77
2023/07/09 02:59:29;;;;;;;7.43;3.10;;;26.90;65.60;;;;;;5073214;28;20156;-76
2023/07/09 03:01:56;;;;;;;6.80;3.13;;;26.90;65.90;;;;;;5073049;28;20017;-78
2023/07/09 03:04:22;;;;;;;7.68;3.13;;;26.80;66.00;;;;;;5072576;28;20041;-77
2023/07/09 03:06:48;;;;;;;7.72;2.90;;;26.90;66.00;;;;;;5072598;28;20428;-77
2023/07/09 03:09:14;;;;;;;6.60;3.03;;;26.80;66.00;;;;;;5072712;28;20103;-76
2023/07/09 03:11:40;;;;;;;7.93;2.60;;;26.90;66.00;;;;;;5072967;28;20066;-76
2023/07/09 03:14:06;;;;;;;5.03;2.85;;;26.90;65.80;;;;;;5072528;28;20056;-78
2023/07/09 03:16:34;;;;;;;6.45;2.60;;;27.00;66.00;;;;;;5072538;28;20043;-77
2023/07/09 03:19:01;;;;;;;8.07;2.97;;;27.00;65.80;;;;;;5072642;28;20051;-77
2023/07/09 03:21:28;;;;;;;7.72;2.80;;;27.10;65.60;;;;;;5072518;28;20100;-78
2023/07/09 03:23:55;;;;;;;9.40;2.92;;;27.10;65.60;;;;;;5072370;28;20037;-77
2023/07/09 03:26:21;;;;;;;7.65;2.60;;;27.10;65.60;;;;;;5072404;28;20065;-77
2023/07/09 03:28:47;;;;;;;;;;;27.10;65.20;;;;;;5073459;28;20060;-77
2023/07/09 03:31:13;;;;;;;;;;;27.20;64.80;;;;;;5073343;28;19911;-77
2023/07/09 03:33:39;;;;;;;7.72;2.65;;;27.20;64.70;;;;;;5088289;28;19909;-77
2023/07/09 03:36:05;;;;;;;5.63;2.40;;;27.30;64.30;;;;;;5072741;28;20024;-77
2023/07/09 03:38:31;;;;;;;;;;;27.30;64.30;;;;;;5072632;28;20074;-78
2023/07/09 03:40:57;;;;;;;;;;;27.30;63.80;;;;;;5088197;28;19912;-77
2023/07/09 03:43:24;;;;;;;6.22;2.50;;;27.40;63.30;;;;;;5072161;28;19990;-77
2023/07/09 03:45:49;;;;;;;;;;;27.60;63.30;;;;;;5076768;28;20031;-76
2023/07/09 03:48:16;;;;;;;;;;;27.50;63.50;;;;;;5076987;28;19904;-77
2023/07/09 03:50:46;;;;;;;5.55;2.50;;;27.50;63.20;;;;;;5076467;28;19904;-77
2023/07/09 03:53:12;;;;;;;4.65;2.60;;;27.50;62.90;;;;;;5076181;28;20030;-76
2023/07/09 03:55:39;;;;;;;6.57;2.70;;;27.60;62.70;;;;;;5075895;28;20031;-77
2023/07/09 03:58:05;;;;;;;;;;;27.60;62.90;;;;;;5076404;28;20056;-77
2023/07/09 04:00:31;;;;;;;;;;;27.50;62.70;;;;;;5076450;28;19904;-77
2023/07/09 04:02:57;;;;;;;;;;;27.50;62.80;;;;;;5076473;28;19919;-77
2023/07/09 04:05:26;;;;;;;;;;;27.50;62.60;;;;;;5076293;28;20003;-77
2023/07/09 04:07:53;;;;;;;9.23;2.38;;;27.40;62.60;;;;;;5076348;28;19954;-77
2023/07/09 04:10:18;;;;;;;;;;;27.30;62.60;;;;;;5076664;28;20476;-76
2023/07/09 04:12:44;;;;;;;;;;;27.40;62.10;;;;;;5076190;28;19983;-77
2023/07/09 04:15:12;;;;;;;7.32;3.33;;;27.50;61.50;;;;;;5075784;28;19904;-76
2023/07/09 04:17:39;;;;;;;15.90;4.28;;;27.60;60.60;;;;;;5075877;28;20349;-77
2023/07/09 04:20:07;;;;;;;8.10;3.53;;;27.60;60.80;;;;;;5075874;28;20059;-77
2023/07/09 04:22:34;;;;;;;9.80;4.00;;;27.60;60.90;;;;;;5075994;28;20028;-77
2023/07/09 04:25:02;;;;;;;12.50;3.42;;;27.60;60.50;;;;;;5075299;28;20020;-77
2023/07/09 04:27:28;;;;;;;10.25;3.50;;;27.70;60.50;;;;;;5075992;28;20023;-77
2023/07/09 04:29:55;;;;;;;10.00;3.78;;;27.80;60.60;;;;;;5074067;28;20082;-77
2023/07/09 04:32:21;;;;;;;13.93;4.50;;;27.80;60.80;;;;;;5075635;28;20017;-77
2023/07/09 04:34:47;;;;;;;10.63;4.80;;;27.80;61.20;;;;;;5073981;28;20032;-77
2023/07/09 04:37:16;;;;;;;12.00;5.03;;;27.70;61.30;;;;;;5075528;28;20078;-77
2023/07/09 04:39:43;;;;;;;11.07;5.47;;;27.70;61.80;;;;;;5074885;28;20037;-77
2023/07/09 04:42:13;;;;;;;9.38;5.28;;;27.70;61.70;;;;;;5075013;28;20085;-77
2023/07/09 04:44:40;;;;;;;12.00;5.20;;;27.80;61.80;;;;;;5073786;28;20032;-77
2023/07/09 04:47:06;;;;;;;12.07;4.63;;;27.90;62.00;;;;;;5075047;28;20507;-76
2023/07/09 04:49:32;;;;;;;8.05;4.78;;;28.00;61.80;;;;;;5075609;28;20096;-77
2023/07/09 04:51:59;;;;;;;7.97;4.88;;;28.20;60.00;;;;;;5075084;28;20023;-77
2023/07/09 04:54:26;;;;;;;14.77;4.97;;;28.40;60.40;;;;;;5074482;28;20021;-76
2023/07/09 04:56:52;;;;;;;8.98;4.35;;;28.50;60.80;;;;;;5075339;28;20025;-76
2023/07/09 04:59:19;;;;;;;8.43;4.70;;;28.50;61.00;;;;;;5074861;28;20137;-77
2023/07/09 05:01:45;;;;;;;11.90;4.68;;;28.60;60.70;;;;;;5073347;28;20036;-76
2023/07/09 05:04:11;;;;;;;;;;;28.70;61.20;;;;;;5075641;28;20032;-77
2023/07/09 05:06:37;;;;;;;;;;;28.70;61.40;;;;;;5075522;28;19904;-76
2023/07/09 05:09:04;;;;;;;11.55;4.32;;;29.00;61.60;;;;;;5090150;28;19904;-74
2023/07/09 05:11:33;;;;;;;8.70;4.38;;;29.10;61.70;;;;;;5075206;28;20063;-76
2023/07/09 05:13:59;;;;;;;8.25;4.35;;;29.30;61.70;;;;;;5074836;28;20031;-76
2023/07/09 05:16:25;;;;;;;9.45;3.65;;;29.60;61.70;;;;;;5075055;28;20028;-76
2023/07/09 05:18:52;;;;;;;9.32;4.13;;;30.20;61.70;;;;;;5074561;28;20025;-75
2023/07/09 05:21:17;;;;;;;;;;;30.60;60.40;;;;;;5074915;28;20186;-76
2023/07/09 05:23:43;;;;;;;12.73;3.95;;;30.90;60.40;;;;;;5074481;28;20007;-75
2023/07/09 05:26:10;;;;;;;9.85;4.55;;;31.30;60.00;;;;;;5073063;28;20031;-75
2023/07/09 05:28:36;;;;;;;11.18;4.15;;;31.70;59.50;;;;;;5074841;28;20025;-76
2023/07/09 05:31:02;;;;;;;10.32;4.43;;;32.20;59.80;;;;;;5074338;28;20483;-76
2023/07/09 05:33:28;;;;;;;;;;;32.90;58.50;;;;;;5074731;28;20028;-76
2023/07/09 05:35:54;;;;;;;8.00;4.07;;;32.80;59.90;;;;;;5074682;28;19904;-76
2023/07/09 05:38:20;;;;;;;13.93;4.43;;;33.30;57.50;;;;;;5074208;28;20051;-76
2023/07/09 05:40:46;;;;;;;;;;;34.00;58.30;;;;;;5074223;28;20134;-76
2023/07/09 05:43:12;;;;;;;12.32;4.80;;;35.00;56.90;;;;;;5074540;28;20352;-76
2023/07/09 05:45:41;;;;;;;11.10;5.28;;;35.70;56.20;;;;;;5074563;28;20107;-76
2023/07/09 05:48:07;;;;;;;10.07;6.03;;;36.30;55.40;;;;;;5074367;28;20028;-76
2023/07/09 05:50:35;;;;;;;8.93;5.00;;;36.80;54.60;;;;;;5074049;28;20031;-76
2023/07/09 05:53:01;;;;;;;14.15;8.75;;;37.10;54.30;;;;;;5074343;28;20391;-77
2023/07/09 05:55:27;;;;;;;9.50;5.32;;;37.30;54.50;;;;;;5073713;28;20556;-76
2023/07/09 05:57:54;;;;;;;8.75;4.35;;;38.00;54.00;;;;;;5074158;28;20089;-77
2023/07/09 06:00:20;;;;;;;9.15;4.15;;;38.30;53.30;;;;;;5073653;28;20025;-77
2023/07/09 06:02:46;;;;;;;7.00;3.88;;;38.50;53.60;;;;;;5073540;28;20054;-77
2023/07/09 06:05:12;;;;;;;10.55;6.05;;;39.00;53.10;;;;;;5074008;28;20545;-77
2023/07/09 06:07:39;;;;;;;24.02;16.75;;;39.40;53.10;;;;;;5072651;28;20099;-77
2023/07/09 06:10:07;;;;;;;13.55;8.05;;;39.20;53.10;;;;;;5071963;28;20024;-76
2023/07/09 06:12:34;;;;;;;6.65;3.95;;;39.20;52.80;;;;;;5073639;28;20030;-78
2023/07/09 06:15:00;;;;;;;11.35;4.85;;;39.90;52.60;;;;;;5073227;28;20024;-77
2023/07/09 06:17:26;;;;;;;27.60;16.55;;;39.90;52.70;;;;;;5073163;28;20025;-77
2023/07/09 06:19:52;;;;;;;18.33;6.90;;;40.10;52.40;;;;;;5073134;28;20025;-77
2023/07/09 06:22:19;;;;;;;10.93;6.00;;;40.60;51.40;;;;;;5073115;28;20040;-77
2023/07/09 06:24:45;;;;;;;11.30;6.65;;;40.30;52.10;;;;;;5088352;28;20078;-78
2023/07/09 06:27:12;;;;;;;14.63;6.07;;;40.80;52.40;;;;;;5073211;28;20032;-77
2023/07/09 06:29:38;;;;;;;10.60;4.90;;;41.10;51.20;;;;;;5073417;28;20115;-76
2023/07/09 06:32:04;;;;;;;6.72;3.10;;;41.60;51.00;;;;;;5073277;28;20096;-78
2023/07/09 06:34:31;;;;;;;8.50;3.40;;;40.70;50.70;;;;;;5072913;28;20029;-77
2023/07/09 06:36:58;;;;;;;7.72;3.15;;;41.60;51.30;;;;;;5073153;28;20021;-78
2023/07/09 06:39:24;;;;;;;5.78;2.97;;;42.10;50.60;;;;;;5072258;28;20052;-77
2023/07/09 06:41:50;;;;;;;11.40;2.97;;;41.90;51.10;;;;;;5072723;28;20032;-78
2023/07/09 06:44:16;;;;;;;7.25;2.90;;;42.60;50.40;;;;;;5073132;28;20043;-77
2023/07/09 06:46:44;;;;;;;5.82;2.65;;;42.80;49.90;;;;;;5072872;28;20028;-78
2023/07/09 06:49:10;;;;;;;6.55;2.58;;;43.00;49.30;;;;;;5072826;28;20037;-77
2023/07/09 06:51:36;;;;;;;7.93;2.40;;;43.00;49.10;;;;;;5073007;28;20317;-77
2023/07/09 06:54:04;;;;;;;7.63;2.55;;;42.90;47.90;;;;;;5072703;28;20028;-77
2023/07/09 06:56:31;;;;;;;8.18;2.80;;;42.60;48.20;;;;;;5072745;28;20023;-77
2023/07/09 06:58:57;;;;;;;4.45;2.72;;;43.00;48.90;;;;;;5072405;28;20575;-78
2023/07/09 07:01:23;;;;;;;11.10;2.70;;;42.60;48.60;;;;;;5072600;28;20020;-78
2023/07/09 07:03:49;;;;;;;7.00;2.50;;;42.70;48.80;;;;;;5072716;28;20036;-78
2023/07/09 07:06:16;;;;;;;12.23;2.80;;;43.00;49.00;;;;;;5072472;28;20020;-77
2023/07/09 07:08:42;;;;;;;8.75;2.63;;;43.50;48.10;;;;;;5072156;28;20055;-78
2023/07/09 07:11:08;;;;;;;16.63;3.25;;;43.40;47.50;;;;;;5072576;28;20028;-77
2023/07/09 07:13:39;;;;;;;11.25;2.75;;;42.40;47.60;;;;;;5072485;28;20036;-78
2023/07/09 07:16:08;;;;;;;6.38;2.42;;;42.20;48.00;;;;;;5072636;28;20520;-78
2023/07/09 07:18:35;;;;;;;7.78;2.50;;;41.40;48.00;;;;;;5070896;28;20492;-77
2023/07/09 07:21:02;;;;;;;6.95;2.70;;;40.80;48.70;;;;;;5072800;28;20077;-78
2023/07/09 07:23:29;;;;;;;8.85;2.67;;;40.60;49.40;;;;;;5070964;28;20500;-77
2023/07/09 07:25:55;;;;;;;7.88;2.50;;;40.60;49.80;;;;;;5071042;28;20025;-76
2023/07/09 07:28:21;;;;;;;6.22;2.55;;;40.90;49.60;;;;;;5073077;28;20021;-77
2023/07/09 07:31:00;;;;;;;6.65;2.80;;;40.50;49.80;;;;;;5072963;28;20483;-77
2023/07/09 07:33:26;;;;;;;5.63;2.72;;;40.50;50.40;;;;;;5072741;28;20021;-77
2023/07/09 07:35:52;;;;;;;12.82;2.70;;;39.90;50.40;;;;;;5072473;28;20027;-78
2023/07/09 07:38:18;;;;;;;7.78;2.85;;;39.70;51.50;;;;;;5070859;28;20025;-77
2023/07/09 07:40:45;;;;;;;10.23;3.13;;;39.10;51.80;;;;;;5071862;28;20497;-77
2023/07/09 08:02:11;;;;;;;5.97;2.58;;;38.20;52.20;;;;;;5131405;27;20829;-81
2023/07/09 08:04:40;;;;;;;8.98;3.33;;;37.80;56.90;;;;;;5131004;28;20042;-81
2023/07/09 08:07:10;;;;;;;6.47;2.50;;;38.00;56.80;;;;;;5130675;28;20028;-82
2023/07/09 08:09:36;;;;;;;6.53;2.70;;;37.50;57.40;;;;;;5130802;28;20072;-81
2023/07/09 08:12:09;;;;;;;6.22;2.83;;;37.70;58.20;;;;;;5131287;28;20031;-80
2023/07/09 08:14:40;;;;;;;6.35;3.00;;;38.10;57.60;;;;;;5130695;28;20031;-82
2023/07/09 08:17:07;;;;;;;7.30;2.67;;;37.90;57.70;;;;;;5130701;28;20019;-79
2023/07/09 08:19:45;;;;;;;7.38;2.47;;;37.50;57.90;;;;;;5130534;28;20103;-80
2023/07/09 08:22:11;;;;;;;9.82;3.45;;;38.00;58.50;;;;;;5130578;28;20020;-81
2023/07/09 08:24:37;;;;;;;8.82;2.88;;;37.90;58.70;;;;;;5130538;28;20024;-81
2023/07/09 08:27:03;;;;;;;7.20;2.80;;;38.10;58.60;;;;;;5131046;28;20111;-80
2023/07/09 08:29:29;;;;;;;15.15;2.95;;;37.50;60.00;;;;;;5130381;28;20023;-80
2023/07/09 08:31:55;;;;;;;5.43;2.40;;;37.80;58.80;;;;;;5130474;28;20502;-81
2023/07/09 08:34:21;;;;;;;8.80;2.75;;;37.00;60.10;;;;;;5130364;28;20019;-82
2023/07/09 08:36:47;;;;;;;7.80;2.67;;;37.20;60.50;;;;;;5130419;28;20104;-80
2023/07/09 08:39:15;;;;;;;6.35;2.25;;;37.10;60.60;;;;;;5130705;28;20019;-80
2023/07/09 08:41:53;;;;;;;6.63;2.90;;;37.30;59.80;;;;;;5130335;28;20079;-81
2023/07/09 08:44:35;;;;;;;8.45;2.65;;;37.10;60.50;;;;;;5130173;28;20026;-82
2023/07/09 08:47:09;;;;;;;7.93;2.40;;;36.90;61.10;;;;;;5130520;28;20173;-82
2023/07/09 08:49:47;;;;;;;7.45;2.17;;;37.30;62.30;;;;;;5130563;28;20495;-81
2023/07/09 08:52:28;;;;;;;8.50;2.83;;;37.30;63.20;;;;;;5130460;28;20033;-82
2023/07/09 08:54:57;;;;;;;6.20;2.38;;;37.60;63.90;;;;;;5130594;28;20094;-81
2023/07/09 08:57:35;;;;;;;4.97;2.20;;;37.50;64.30;;;;;;5130067;28;20054;-82
2023/07/09 09:00:12;;;;;;;6.07;2.20;;;37.30;64.10;;;;;;5129695;28;20126;-81
2023/07/09 09:03:15;;;;;;;11.00;2.80;;;37.60;63.80;;;;;;5118827;28;20479;-82
2023/07/09 09:05:46;;;;;;;6.43;2.33;;;37.80;64.10;;;;;;5098018;28;20020;-82
2023/07/09 09:08:33;;;;;;;5.40;2.20;;;37.70;63.70;;;;;;5116535;28;20031;-82
2023/07/09 09:11:31;;;;;;;7.78;2.10;;;37.30;64.30;;;;;;5115718;28;20097;-81
2023/07/09 09:14:05;;;;;;;6.75;2.33;;;37.50;64.00;;;;;;5091584;28;20058;-82
2023/07/09 09:16:35;;;;;;;7.18;2.50;;;37.50;63.90;;;;;;5116418;28;20519;-83
2023/07/09 09:19:05;;;;;;;4.60;2.33;;;37.20;64.50;;;;;;5116516;28;20019;-81
2023/07/09 09:21:35;;;;;;;5.60;2.33;;;36.90;64.20;;;;;;5115989;28;20043;-81
2023/07/09 09:24:53;;;;;;;6.60;2.38;;;36.50;65.60;;;;;;5115716;28;20163;-81
2023/07/09 09:27:19;;;;;;;4.28;2.35;;;36.50;64.70;;;;;;5033219;28;20030;-81
2023/07/09 09:29:45;;;;;;;6.15;2.63;;;36.50;65.60;;;;;;5033353;28;20516;-81
2023/07/09 09:32:21;;;;;;;8.25;2.70;;;36.30;66.60;;;;;;5033113;28;20467;-81
2023/07/09 09:34:47;;;;;;;7.53;2.58;;;36.40;66.60;;;;;;5033019;28;20104;-80
2023/07/09 09:37:22;;;;;;;6.70;2.65;;;36.20;67.40;;;;;;5033108;28;20393;-81
2023/07/09 09:39:48;;;;;;;;;;;36.20;68.00;;;;;;5016499;28;20032;-80
2023/07/09 09:42:14;;;;;;;9.02;2.75;;;35.50;69.60;;;;;;5016046;28;19905;-81
2023/07/09 09:44:44;;;;;;;5.97;2.70;;;35.80;69.60;;;;;;5032851;28;20048;-80
2023/07/09 09:47:11;;;;;;;5.38;2.33;;;35.60;69.90;;;;;;5033115;28;20025;-81
2023/07/09 09:49:42;;;;;;;5.30;2.95;;;35.60;69.70;;;;;;5032742;28;20041;-80
2023/07/09 09:52:14;;;;;;;10.88;2.90;;;36.00;69.60;;;;;;5032623;28;20139;-81
2023/07/09 09:54:46;;;;;;;7.05;2.70;;;36.20;68.60;;;;;;5032402;28;20057;-82
2023/07/09 09:57:22;;;;;;;10.77;3.05;;;36.50;68.20;;;;;;5032306;28;20104;-82
2023/07/09 09:59:48;;;;;;;5.38;2.85;;;36.50;68.50;;;;;;5032492;28;20431;-81
2023/07/09 10:02:20;;;;;;;7.93;2.60;;;36.30;68.90;;;;;;5056161;28;20036;-81
2023/07/09 10:04:47;;;;;;;7.63;2.50;;;35.70;68.50;;;;;;5094630;28;20028;-80
2023/07/09 10:07:32;;;;;;;5.63;2.55;;;35.70;69.70;;;;;;5094359;28;20024;-81
2023/07/09 10:09:58;;;;;;;5.03;2.47;;;35.40;70.10;;;;;;5094867;28;20052;-80
2023/07/09 10:12:30;;;;;;;7.55;2.30;;;35.40;70.00;;;;;;5094727;28;20419;-81
2023/07/09 10:15:00;;;;;;;5.55;2.70;;;35.70;68.90;;;;;;5093837;28;20024;-82
2023/07/09 10:17:58;;;;;;;9.30;2.92;;;35.60;70.30;;;;;;5094738;28;20172;-82
2023/07/09 10:20:56;;;;;;;5.35;2.80;;;35.50;69.60;;;;;;5094836;28;20051;-82
2023/07/09 10:24:12;;;;;;;9.80;2.60;;;35.50;69.50;;;;;;5031857;28;20037;-81
2023/07/09 10:26:53;;;;;;;10.15;2.85;;;35.20;69.90;;;;;;4973030;28;20038;-80
2023/07/09 10:29:33;;;;;;;8.85;2.47;;;35.40;71.00;;;;;;4973349;28;20034;-81
2023/07/09 10:32:27;;;;;;;4.85;2.80;;;35.30;71.70;;;;;;4973513;28;20039;-82
2023/07/09 10:35:12;;;;;;;89.30;6.78;;;35.30;72.90;;;;;;4973681;28;20037;-81
2023/07/09 10:37:50;;;;;;;9.05;2.50;;;35.60;72.60;;;;;;4972787;28;20039;-81
2023/07/09 10:40:43;;;;;;;5.50;2.78;;;35.40;69.70;;;;;;4973273;28;20043;-82
2023/07/09 10:43:16;;;;;;;7.30;2.78;;;35.20;70.70;;;;;;4967489;28;20031;-82
2023/07/09 10:45:56;;;;;;;7.72;3.28;;;35.00;69.60;;;;;;4973099;28;20042;-81
2023/07/09 10:48:54;;;;;;;9.75;3.47;;;35.40;69.50;;;;;;4972740;28;20093;-81
2023/07/09 10:51:31;;;;;;;7.20;2.70;;;35.30;69.40;;;;;;4972037;28;20073;-82
2023/07/09 10:54:24;;;;;;;7.32;2.78;;;35.00;70.40;;;;;;4972872;28;20022;-82
2023/07/09 10:56:57;;;;;;;5.90;2.25;;;35.10;67.80;;;;;;4977346;28;20037;-81
2023/07/09 10:59:26;;;;;;;14.52;2.53;;;35.10;70.00;;;;;;5073802;28;20035;-82
2023/07/09 11:01:59;;;;;;;8.55;2.60;;;35.20;72.60;;;;;;5093520;28;20052;-81
2023/07/09 11:04:46;;;;;;;6.32;2.70;;;35.00;72.00;;;;;;5075578;28;20475;-81
2023/07/09 11:07:17;;;;;;;6.13;2.60;;;35.20;71.90;;;;;;5093659;28;20055;-81
2023/07/09 11:09:47;;;;;;;6.68;2.53;;;35.20;73.10;;;;;;5093698;28;20352;-81
2023/07/09 11:12:27;;;;;;;9.98;2.75;;;35.40;74.40;;;;;;5093955;28;20076;-80
2023/07/09 11:15:04;;;;;;;7.85;2.70;;;35.20;74.60;;;;;;5094056;28;20016;-81
2023/07/09 11:17:33;;;;;;;5.07;2.60;;;35.40;75.10;;;;;;5093618;28;20020;-80
2023/07/09 11:20:06;;;;;;;7.55;3.13;;;35.50;75.90;;;;;;5093532;28;20027;-80
2023/07/09 11:22:40;;;;;;;8.45;2.90;;;35.20;76.30;;;;;;5111575;28;20487;-80
2023/07/09 11:25:06;;;;;;;6.88;2.70;;;35.20;78.20;;;;;;5113695;28;20028;-80
2023/07/09 11:27:32;;;;;;;;;;;35.20;79.20;;;;;;5114565;28;20043;-82
2023/07/09 11:30:20;;;;;;;7.70;2.53;;;35.30;76.40;;;;;;5095449;28;20283;-81
2023/07/09 11:32:47;;;;;;;7.35;2.75;;;34.70;78.00;;;;;;5113991;28;20040;-81
2023/07/09 11:35:28;;;;;;;8.30;2.40;;;34.50;78.90;;;;;;5113913;28;20024;-81
2023/07/09 11:37:54;;;;;;;6.65;2.42;;;34.50;80.90;;;;;;5113579;28;20020;-80
2023/07/09 11:40:22;;;;;;;8.13;2.80;;;34.70;81.20;;;;;;5113628;28;20027;-81
2023/07/09 11:42:52;;;;;;;6.93;2.60;;;34.80;82.40;;;;;;5114055;28;20190;-81
2023/07/09 11:45:47;;;;;;;12.27;2.78;;;35.10;81.60;;;;;;5113706;28;20024;-81
2023/07/09 11:48:16;;;;;;;8.30;2.70;;;35.20;80.80;;;;;;5030648;28;20133;-81
2023/07/09 11:50:48;;;;;;;4.55;2.28;;;34.80;82.70;;;;;;5030739;28;20041;-79
2023/07/09 11:53:32;;;;;;;7.18;2.60;;;34.90;85.20;;;;;;5031283;28;20189;-81
2023/07/09 11:55:58;;;;;;;7.20;2.43;;;35.00;84.20;;;;;;5031051;28;20442;-82
2023/07/09 11:58:24;;;;;;;6.68;2.33;;;34.90;80.80;;;;;;5031347;28;20038;-81
2023/07/09 12:00:51;;;;;;;;;;;35.10;81.30;;;;;;5030840;28;20149;-81
2023/07/09 12:03:23;;;;;;;7.68;2.55;;;35.10;84.60;;;;;;5014067;28;19979;-82
2023/07/09 12:05:55;;;;;;;6.85;2.55;;;34.90;85.80;;;;;;5031030;28;20037;-81
2023/07/09 12:08:32;;;;;;;6.57;2.50;;;35.10;84.50;;;;;;5030580;28;20533;-81
2023/07/09 12:10:58;;;;;;;7.78;2.53;;;35.00;85.20;;;;;;5031026;28;20485;-81
2023/07/09 12:13:24;;;;;;;;;;;35.10;84.30;;;;;;5031785;28;20462;-80
2023/07/09 12:15:50;;;;;;;4.90;2.17;;;35.00;82.60;;;;;;5030856;28;19944;-81
2023/07/09 12:18:16;;;;;;;;;;;34.50;81.30;;;;;;5031567;28;20115;-81
2023/07/09 12:20:48;;;;;;;9.70;2.58;;;34.70;83.00;;;;;;5030858;28;20400;-81
2023/07/09 12:23:30;;;;;;;7.15;2.33;;;35.00;83.00;;;;;;5030973;28;20026;-81
2023/07/09 12:26:01;;;;;;;5.97;2.50;;;34.90;82.60;;;;;;5093172;28;20085;-81
2023/07/09 12:28:28;;;;;;;5.53;2.45;;;34.70;84.60;;;;;;5093069;28;20387;-81
2023/07/09 12:30:54;;;;;;;5.97;2.15;;;34.80;85.20;;;;;;5092747;28;20135;-80
2023/07/09 12:33:23;;;;;;;7.63;2.33;;;34.70;85.00;;;;;;5092498;28;20030;-80
2023/07/09 12:36:03;;;;;;;6.90;2.30;;;34.80;85.00;;;;;;5074376;28;20020;-81
2023/07/09 12:38:42;;;;;;;8.00;2.60;;;34.50;87.80;;;;;;5096910;28;20036;-81
2023/07/09 12:41:21;;;;;;;5.22;2.60;;;34.30;89.20;;;;;;5096411;28;20052;-81
2023/07/09 12:43:47;;;;;;;7.07;2.40;;;34.40;89.20;;;;;;5096626;28;20020;-80
2023/07/09 12:46:13;;;;;;;6.70;2.53;;;34.00;91.00;;;;;;5096369;28;20024;-81
2023/07/09 12:48:40;;;;;;;5.47;2.40;;;34.10;91.20;;;;;;5096034;28;20020;-81
2023/07/09 12:51:08;;;;;;;5.13;2.20;;;34.30;90.50;;;;;;5102634;28;20043;-80
2023/07/09 12:53:37;;;;;;;5.95;2.60;;;34.20;90.90;;;;;;5117025;28;20142;-81
2023/07/09 12:56:13;;;;;;;5.82;2.65;;;34.00;91.50;;;;;;5116315;28;20039;-81
2023/07/09 12:58:39;;;;;;;;;;;34.40;91.90;;;;;;5117525;28;20016;-81
2023/07/09 13:01:16;;;;;;;6.70;2.38;;;34.50;91.70;;;;;;5116317;28;20264;-81
2023/07/09 13:03:54;;;;;;;5.50;2.53;;;34.30;91.60;;;;;;5116479;28;20053;-82
2023/07/09 13:06:26;;;;;;;8.27;2.80;;;34.40;91.70;;;;;;5116603;28;20027;-80
2023/07/09 13:08:59;;;;;;;5.30;2.60;;;34.40;92.40;;;;;;5116207;28;20364;-80
2023/07/09 13:11:34;;;;;;;7.07;2.70;;;33.80;91.80;;;;;;5116533;28;20073;-79
2023/07/09 13:14:04;;;;;;;7.95;2.25;;;34.10;92.30;;;;;;5116365;28;20038;-80
2023/07/09 13:16:30;;;;;;;6.22;2.20;;;34.20;92.40;;;;;;5116686;28;20035;-80
2023/07/09 13:18:56;;;;;;;5.90;2.80;;;34.20;90.10;;;;;;5116487;28;20034;-80
2023/07/09 13:21:23;;;;;;;;;;;34.20;91.30;;;;;;5116322;28;20093;-80
2023/07/09 13:23:49;;;;;;;6.93;2.40;;;33.80;91.70;;;;;;5116021;28;19910;-81